createdAt,value
2022-08-03T00:04:33.604Z,99830.56
2022-08-03T00:09:36.113Z,99818.94
2022-08-03T00:14:37.809Z,99819.44
2022-08-03T00:19:39.442Z,99808.34
2022-08-03T00:24:41.089Z,99816.53
2022-08-03T00:29:59.927Z,99810.75
2022-08-03T00:35:05.676Z,99819.63
2022-08-03T00:40:13.643Z,99817.47
2022-08-03T00:45:15.333Z,99811.88
2022-08-03T00:50:18.520Z,99808.31
2022-08-03T00:55:20.748Z,99813.13
2022-08-03T01:00:25.040Z,99810.56
2022-08-03T01:05:26.796Z,99808.78
2022-08-03T01:10:46.942Z,99818.22
2022-08-03T01:15:54.595Z,99813.16
2022-08-03T01:21:00.922Z,99814.59
2022-08-03T01:26:17.406Z,99814.03
2022-08-03T01:31:23.948Z,99820.47
2022-08-03T01:36:32.699Z,99810.47
2022-08-03T01:41:38.921Z,99804.78
2022-08-03T01:46:48.874Z,99808.56
2022-08-03T01:51:58.553Z,99804.84
2022-08-03T01:57:08.625Z,99807.00
2022-08-03T02:02:15.572Z,99803.19
2022-08-03T02:07:36.880Z,99813.13
2022-08-03T02:12:39.867Z,99809.97
2022-08-03T02:17:44.228Z,99809.19
2022-08-03T02:22:47.210Z,99792.47
2022-08-03T02:27:56.806Z,99797.03
2022-08-03T02:33:01.429Z,99793.72
2022-08-03T02:38:07.656Z,99789.75
2022-08-03T02:43:16.140Z,99790.19
2022-08-03T02:48:24.950Z,99796.06
2022-08-03T02:53:28.944Z,99796.03
2022-08-03T02:58:32.561Z,99795.59
2022-08-03T03:03:42.878Z,99802.53
2022-08-03T03:08:47.686Z,99799.38
2022-08-03T03:13:49.999Z,99804.81
2022-08-03T03:18:52.697Z,99803.56
2022-08-03T03:23:54.971Z,99807.94
2022-08-03T03:28:57.139Z,99798.97
2022-08-03T03:33:59.712Z,99800.44
2022-08-03T03:39:15.492Z,99802.31
2022-08-03T03:44:17.853Z,99804.38
2022-08-03T03:49:21.016Z,99802.94
2022-08-03T03:54:25.340Z,99804.84
2022-08-03T03:59:29.900Z,99809.41
2022-08-03T04:04:51.807Z,99801.66
2022-08-03T04:10:14.831Z,99812.53
2022-08-03T04:15:22.793Z,99814.84
2022-08-03T04:20:28.118Z,99818.81
2022-08-03T04:25:32.920Z,99813.38
2022-08-03T04:30:37.675Z,99821.44
2022-08-03T04:35:58.601Z,99818.91
2022-08-03T04:41:04.090Z,99827.25
2022-08-03T04:46:07.182Z,99826.75
2022-08-03T04:51:10.957Z,99836.72
2022-08-03T04:56:12.627Z,99829.38
2022-08-03T05:01:15.639Z,99831.28
2022-08-03T05:06:17.291Z,99830.47
2022-08-03T05:11:19.263Z,99831.44
2022-08-03T05:16:20.936Z,99836.56
2022-08-03T05:21:22.588Z,99829.25
2022-08-03T05:26:24.283Z,99827.13
2022-08-03T05:31:25.929Z,99819.88
2022-08-03T05:36:27.640Z,99834.97
2022-08-03T05:41:37.015Z,99828.22
2022-08-03T05:46:39.230Z,99825.28
2022-08-03T05:51:40.863Z,99827.66
2022-08-03T05:56:42.717Z,99827.66
2022-08-03T06:01:44.439Z,99825.41
2022-08-03T06:06:46.175Z,99820.47
2022-08-03T06:11:47.838Z,99825.91
2022-08-03T06:16:49.522Z,99822.72
2022-08-03T06:21:51.301Z,99809.63
2022-08-03T06:26:53.317Z,99820.88
2022-08-03T06:31:54.946Z,99817.78
2022-08-03T06:37:01.814Z,99810.28
2022-08-03T06:42:04.268Z,99810.28
2022-08-03T06:47:05.980Z,99813.13
2022-08-03T06:52:07.631Z,99807.09
2022-08-03T06:57:11.607Z,99805.69
2022-08-03T07:02:19.161Z,99809.59
2022-08-03T07:07:21.279Z,99802.56
2022-08-03T07:12:23.001Z,99806.19
2022-08-03T07:17:24.892Z,99804.53
2022-08-03T07:22:27.023Z,99802.38
2022-08-03T07:27:29.896Z,99799.63
2022-08-03T07:32:31.993Z,99802.56
2022-08-03T07:37:34.040Z,99790.28
2022-08-03T07:42:35.796Z,99790.69
2022-08-03T07:47:37.594Z,99790.22
2022-08-03T07:52:48.332Z,99785.38
2022-08-03T07:58:06.443Z,99779.59
2022-08-03T08:03:09.044Z,99774.47
2022-08-03T08:08:11.179Z,99761.16
2022-08-03T08:13:12.918Z,99766.47
2022-08-03T08:18:14.596Z,99749.25
2022-08-03T08:23:41.557Z,99754.06
2022-08-03T08:28:39.610Z,99752.13
2022-08-03T08:39:03.075Z,99733.75
2022-08-03T08:44:05.069Z,99736.03
2022-08-03T08:49:10.018Z,99736.41
2022-08-03T08:54:12.880Z,99731.88
2022-08-03T08:59:15.246Z,99736.88
2022-08-03T09:04:17.619Z,99738.03
2022-08-03T09:09:28.449Z,99740.63
2022-08-03T09:14:54.873Z,99737.63
2022-08-03T09:20:09.254Z,99735.13
2022-08-03T09:25:24.314Z,99733.34
2022-08-03T09:30:33.404Z,99724.84
2022-08-03T09:35:53.503Z,99722.38
2022-08-03T09:41:00.465Z,99719.19
2022-08-03T09:46:04.859Z,99719.16
2022-08-03T09:51:13.867Z,99723.34
2022-08-03T09:56:47.307Z,99714.78
2022-08-03T10:01:49.142Z,99714.41
2022-08-03T10:07:11.149Z,99704.22
2022-08-03T10:12:13.905Z,99707.19
2022-08-03T10:17:16.008Z,99696.06
2022-08-03T10:22:27.882Z,99686.81
2022-08-03T10:27:36.699Z,99689.03
2022-08-03T10:32:48.763Z,99694.63
2022-08-03T10:37:59.894Z,99691.66
2022-08-03T10:43:13.305Z,99681.25
2022-08-03T10:48:15.943Z,99694.28
2022-08-03T10:53:34.568Z,99678.31
2022-08-03T10:58:57.625Z,99671.72
2022-08-03T11:03:59.752Z,99679.81
2022-08-03T11:09:10.606Z,99669.69
2022-08-03T11:14:15.108Z,99668.34
2022-08-03T11:19:22.615Z,99664.94
2022-08-03T11:24:41.478Z,99655.28
2022-08-03T11:30:10.521Z,99657.94
2022-08-03T11:35:16.349Z,99651.91
2022-08-03T11:40:41.313Z,99654.16
2022-08-03T11:46:00.318Z,99646.38
2022-08-03T11:51:03.520Z,99651.34
2022-08-03T11:56:05.195Z,99645.34
2022-08-03T12:01:21.230Z,99641.59
2022-08-03T12:06:24.673Z,99621.88
2022-08-03T12:11:26.437Z,99627.56
2022-08-03T12:16:28.913Z,99616.69
2022-08-03T12:21:31.345Z,99616.38
2022-08-03T12:26:59.560Z,99610.84
2022-08-03T12:32:01.696Z,99605.84
2022-08-03T12:37:05.161Z,99605.66
2022-08-03T12:42:37.756Z,99602.50
2022-08-03T12:47:56.198Z,99590.81
2022-08-03T12:52:59.605Z,99593.56
2022-08-03T12:58:05.353Z,99582.09
2022-08-03T13:03:39.571Z,99583.72
2022-08-03T13:08:30.084Z,99587.47
2022-08-03T13:13:38.667Z,99583.31
2022-08-03T13:18:40.362Z,99578.47
2022-08-03T13:23:43.817Z,99578.88
2022-08-03T13:28:45.497Z,99582.03
2022-08-03T13:33:47.139Z,99569.16
2022-08-03T13:38:48.789Z,99566.81
2022-08-03T13:44:06.719Z,99565.75
2022-08-03T13:49:12.681Z,99563.78
2022-08-03T13:54:14.413Z,99558.22
2022-08-03T13:59:16.124Z,99561.19
2022-08-03T14:04:21.955Z,99560.38
2022-08-03T14:09:24.203Z,99548.41
2022-08-03T14:14:25.847Z,99543.53
2022-08-03T14:19:28.098Z,99547.56
2022-08-03T14:24:30.072Z,99542.72
2022-08-03T14:29:32.058Z,99546.13
2022-08-03T14:34:33.740Z,99541.03
2022-08-03T14:45:02.453Z,99534.00
2022-08-03T14:50:36.014Z,99524.94
2022-08-03T14:55:29.145Z,99518.59
2022-08-03T15:00:40.671Z,99526.94
2022-08-03T15:05:42.293Z,99517.31
2022-08-03T15:10:45.408Z,99519.19
2022-08-03T15:15:48.399Z,99505.84
2022-08-03T15:20:50.910Z,99497.53
2022-08-03T15:26:28.152Z,99507.72
2022-08-03T15:31:18.831Z,99499.78
2022-08-03T15:36:21.139Z,99495.47
2022-08-03T15:41:22.928Z,99492.44
2022-08-03T15:46:29.651Z,99496.38
2022-08-03T15:51:31.683Z,99495.63
2022-08-03T15:56:33.499Z,99493.16
2022-08-03T16:01:35.319Z,99489.75
2022-08-03T16:06:37.090Z,99491.44
2022-08-03T16:11:38.763Z,99483.81
2022-08-03T16:16:41.063Z,99472.59
2022-08-03T16:21:48.073Z,99473.59
2022-08-03T16:26:50.584Z,99477.38
2022-08-03T16:31:52.937Z,99474.34
2022-08-03T16:36:54.730Z,99478.16
2022-08-03T16:42:01.173Z,99479.16
2022-08-03T16:47:03.427Z,99473.41
2022-08-03T16:52:05.589Z,99485.28
2022-08-03T16:57:08.931Z,99488.88
2022-08-03T17:02:20.569Z,99494.31
2022-08-03T17:07:29.693Z,99483.66
2022-08-03T17:12:32.053Z,99490.03
2022-08-03T17:17:47.701Z,99490.38
2022-08-03T17:23:14.532Z,99484.84
2022-08-03T17:28:51.023Z,99493.72
2022-08-03T17:34:00.500Z,99500.06
2022-08-03T17:39:04.826Z,99503.88
2022-08-03T17:44:15.838Z,99504.31
2022-08-03T17:49:31.191Z,99512.19
2022-08-03T17:55:56.317Z,99511.63
2022-08-03T18:00:34.243Z,99509.44
2022-08-03T18:06:11.086Z,99515.22
2022-08-03T18:11:14.745Z,99517.38
2022-08-03T18:16:24.712Z,99524.31
2022-08-03T18:21:28.302Z,99526.94
2022-08-03T18:26:50.891Z,99534.31
2022-08-03T18:32:02.646Z,99537.44
2022-08-03T18:37:07.677Z,99544.03
2022-08-03T18:42:19.465Z,99546.22
2022-08-03T18:47:52.299Z,99541.88
2022-08-03T18:52:54.349Z,99548.47
2022-08-03T18:58:04.156Z,99563.06
2022-08-03T19:03:12.546Z,99560.41
2022-08-03T19:08:45.143Z,99566.25
2022-08-03T19:13:51.261Z,99558.94
2022-08-03T19:18:55.816Z,99571.97
2022-08-03T19:24:10.128Z,99560.41
2022-08-03T19:29:15.323Z,99569.75
2022-08-03T19:34:17.981Z,99572.00
2022-08-03T19:39:20.194Z,99575.19
2022-08-03T19:44:28.397Z,99572.50
2022-08-03T19:50:00.013Z,99575.25
2022-08-03T19:55:00.524Z,99571.38
2022-08-03T20:00:05.489Z,99579.97
2022-08-03T20:05:14.817Z,99578.59
2022-08-03T20:10:18.204Z,99580.22
2022-08-03T20:15:22.354Z,99573.06
2022-08-03T20:20:35.249Z,99569.50
2022-08-03T20:25:48.888Z,99575.25
2022-08-03T20:30:59.822Z,99581.22
2022-08-03T20:36:01.787Z,99575.91
2022-08-03T20:41:04.527Z,99577.69
2022-08-03T20:46:32.005Z,99575.75
2022-08-03T20:51:52.897Z,99578.13
2022-08-03T20:56:51.732Z,99584.00
2022-08-03T21:01:53.749Z,99585.88
2022-08-03T21:07:04.084Z,99596.63
2022-08-03T21:12:27.489Z,99594.84
2022-08-03T21:17:41.686Z,99592.69
2022-08-03T21:22:47.439Z,99596.97
2022-08-03T21:27:51.976Z,99603.69
2022-08-03T21:32:55.279Z,99599.88
2022-08-03T21:38:16.473Z,99611.66
2022-08-03T21:43:19.538Z,99600.50
2022-08-03T21:48:25.220Z,99598.75
2022-08-03T21:54:02.839Z,99610.06
2022-08-03T21:58:55.243Z,99607.44
2022-08-03T22:03:58.427Z,99607.25
2022-08-03T22:09:00.560Z,99608.06
2022-08-03T22:14:02.791Z,99607.28
2022-08-03T22:19:04.524Z,99605.75
2022-08-03T22:24:06.548Z,99606.53
2022-08-03T22:29:08.555Z,99606.03
2022-08-03T22:34:10.261Z,99613.31
2022-08-03T22:39:12.732Z,99608.22
2022-08-03T22:44:27.879Z,99617.34
2022-08-03T22:49:31.665Z,99617.69
2022-08-03T22:54:35.381Z,99624.25
2022-08-03T22:59:38.805Z,99614.81
2022-08-03T23:04:44.845Z,99612.22
2022-08-03T23:09:48.452Z,99611.81
2022-08-03T23:14:56.222Z,99610.56
2022-08-03T23:20:17.201Z,99622.09
2022-08-03T23:25:18.936Z,99621.97
2022-08-03T23:30:20.687Z,99627.50
2022-08-03T23:36:28.420Z,99624.94
2022-08-03T23:41:14.148Z,99616.25
2022-08-03T23:46:18.240Z,99625.44
2022-08-03T23:51:30.995Z,99612.31
2022-08-03T23:56:42.798Z,99615.72
